Bookmark and Share
Track history (hours):
 

Seacod

Last reported at 2014-Apr-16 18:04 UTC. Time now 2014-Apr-16 19:18 UTC.
Position N 54°36' E 011°00'.

Length 700 m; draft 10.2 m.

Type: Ship. MMSI: 218019000.

NotesDate/timePositionNaut miles runAvg speedWind from/ knotsBaromVisibWave heightAir tempDewpointWater temp
2014-Apr-16 18:04N 54°36' E 011°00'713.6
2014-Apr-16 17:33N 54°36' E 011°12'1414.0
2014-Apr-16 16:34N 54°30' E 011°34'1413.8
2014-Apr-16 15:33N 54°26' E 011°57'1111.3
2014-Apr-16 14:33N 54°32' E 012°13'1312.9
2014-Apr-16 13:33N 54°41' E 012°29'1413.7
2014-Apr-16 12:34N 54°48' E 012°49'1414.1
2014-Apr-16 11:34N 54°53' E 013°12'1414.0
2014-Apr-16 10:33N 54°58' E 013°35'1414.0
2014-Apr-16 09:33N 55°02' E 013°58'1413.6
2014-Apr-16 08:33N 55°13' E 014°14'1414.4
2014-Apr-16 07:33N 55°24' E 014°30'1413.9
2014-Apr-16 06:33N 55°31' E 014°51'1514.2
2014-Apr-16 05:32N 55°38' E 015°14'4514.1
2014-Apr-16 02:20N 55°50' E 016°31'31812.8
2014-Apr-15 01:33N 59°38' E 023°27'1414.1
2014-Apr-15 00:33N 59°42' E 023°54'1414.0
2014-Apr-14 23:34N 59°46' E 024°20'6913.7
2014-Apr-14 18:33N 60°01' E 026°34'6 0.2
2014-Apr-13 03:32N 59°60' E 026°45'5315.2
2014-Apr-13 00:04N 59°47' E 025°04'815.2
2014-Apr-12 23:32N 59°45' E 024°48'1515.1
2014-Apr-12 22:33N 59°42' E 024°19'1515.0
2014-Apr-12 21:33N 59°38' E 023°51'1615.3
2014-Apr-12 20:31N 59°33' E 023°21'31110.7
2014-Apr-11 15:28N 55°56' E 016°24'1612.5
2014-Apr-11 14:09N 55°48' E 015°58'2112.8
2014-Apr-11 12:30N 55°38' E 015°25'1212.8
2014-Apr-11 11:33N 55°32' E 015°06'1313.1
2014-Apr-11 10:33N 55°26' E 014°46'1312.6
2014-Apr-11 09:33N 55°16' E 014°31'1312.8
2014-Apr-11 08:33N 55°07' E 014°16'1212.4
2014-Apr-11 07:33N 54°59' E 013°59'1312.8
2014-Apr-11 06:33N 54°55' E 013°38'1312.8
2014-Apr-11 05:33N 54°51' E 013°17'1212.5
2014-Apr-11 04:33N 54°47' E 012°56'1212.4
2014-Apr-11 03:33N 54°42' E 012°37'1312.8
2014-Apr-11 02:33N 54°34' E 012°19'1212.1
2014-Apr-11 01:33N 54°24' E 012°08'1412.6
2014-Apr-11 00:25N 54°25' E 011°43'1113.1
2014-Apr-10 23:33N 54°30' E 011°26'1312.6
2014-Apr-10 22:33N 54°35' E 011°07'57 7.1
2014-Apr-10 14:33N 54°13' E 009°36'6 6.2
2014-Apr-10 13:33N 54°10' E 009°27'4 4.4
2014-Apr-10 12:33N 54°08' E 009°20'6 5.9
2014-Apr-10 11:33N 54°02' E 009°18'5 4.7
2014-Apr-10 10:33N 53°58' E 009°15'2 2.0
2014-Apr-10 09:33N 53°56' E 009°13'4 3.8
2014-Apr-10 08:33N 53°54' E 009°09'2 1.9
2014-Apr-10 07:33N 53°53' E 009°06'0 0.0
2014-Apr-10 06:33N 53°53' E 009°06'1211.9
2014-Apr-10 05:34N 53°51' E 008°46'1414.0
2014-Apr-10 04:33N 53°59' E 008°26'1211.8
2014-Apr-10 03:33N 53°59' E 008°06'4 4.1
2014-Apr-10 02:33N 54°03' E 008°10'0 0.3
2014-Apr-10 01:25N 54°03' E 008°11'0 0.1
2014-Apr-10 00:31N 54°03' E 008°10'0 0.0
2014-Apr-09 23:31N 54°03' E 008°10'0 0.0
2014-Apr-09 22:31N 54°03' E 008°10'0 0.1
2014-Apr-09 21:31N 54°03' E 008°11'0 0.1
2014-Apr-09 20:28N 54°03' E 008°11'0 0.0
2014-Apr-09 19:31N 54°03' E 008°11'0 0.0
2014-Apr-09 18:31N 54°03' E 008°11'0 0.1
2014-Apr-09 17:28N 54°03' E 008°11'0 0.0
2014-Apr-09 16:31N 54°03' E 008°11'0 0.0
2014-Apr-09 15:28N 54°03' E 008°11'0 0.0
2014-Apr-09 14:31N 54°03' E 008°11'0 0.0
2014-Apr-09 13:31N 54°03' E 008°11'0 0.0
2014-Apr-09 12:31N 54°03' E 008°11'0 0.0
2014-Apr-09 11:31N 54°03' E 008°11'0 0.0
2014-Apr-09 10:28N 54°03' E 008°11'0 0.0
2014-Apr-09 09:31N 54°03' E 008°11'0 0.1
2014-Apr-09 08:31N 54°03' E 008°11'0 0.0
2014-Apr-09 07:31N 54°03' E 008°11'0 0.0
2014-Apr-09 06:31N 54°03' E 008°11'0 0.0
2014-Apr-09 05:31N 54°03' E 008°11'0 0.0
2014-Apr-09 04:31N 54°03' E 008°11'0 0.0
2014-Apr-09 03:31N 54°03' E 008°11'0 0.0
2014-Apr-09 02:31N 54°03' E 008°11'0 0.0
2014-Apr-09 01:31N 54°03' E 008°11'0 0.0
2014-Apr-09 00:31N 54°03' E 008°11'0 0.0
2014-Apr-08 23:31N 54°03' E 008°11'0 0.0
2014-Apr-08 22:25N 54°03' E 008°11'0 0.0
2014-Apr-08 21:31N 54°03' E 008°11'0 0.0
2014-Apr-08 20:31N 54°03' E 008°11'0 0.0
2014-Apr-08 19:31N 54°03' E 008°11'0 0.0
2014-Apr-08 18:31N 54°03' E 008°11'0 0.2
2014-Apr-08 17:33N 54°03' E 008°11'0 0.4
2014-Apr-08 16:32N 54°03' E 008°11'0 0.3
2014-Apr-08 15:32N 54°03' E 008°11'0 0.0
2014-Apr-08 14:32N 54°03' E 008°11'0 0.0
2014-Apr-08 13:32N 54°03' E 008°11'0 0.1
2014-Apr-08 12:33N 54°03' E 008°11'1010.1
2014-Apr-08 11:34N 53°59' E 008°27'1414.2
2014-Apr-08 10:34N 53°51' E 008°46'1111.1
2014-Apr-08 09:34N 53°52' E 009°05'9 8.6
2014-Apr-08 08:33N 53°50' E 008°51'1110.7
2014-Apr-08 07:34N 53°57' E 008°37'1413.6
2014-Apr-08 06:33N 53°60' E 008°14'1010.2
2014-Apr-08 05:33N 53°59' E 007°57'1010.1
2014-Apr-08 04:33N 53°56' E 007°40'1010.0
2014-Apr-08 03:32N 53°54' E 007°23'1010.0
2014-Apr-08 02:33N 53°51' E 007°07'3611.8
2014-Apr-07 23:30N 53°42' E 006°08'1111.6
2014-Apr-07 22:33N 53°39' E 005°51'1211.5
2014-Apr-07 21:33N 53°35' E 005°32'1211.7
2014-Apr-07 20:33N 53°32' E 005°14'1111.2
2014-Apr-07 19:33N 53°28' E 004°56'2610.5
2014-Apr-07 17:04N 53°08' E 004°28'12911.9
2014-Apr-07 06:15N 51°38' E 001°57'913.1
2014-Apr-07 05:32N 51°32' E 001°45'1212.0
2014-Apr-07 04:33N 51°26' E 001°29'1312.7
2014-Apr-07 03:33N 51°29' E 001°10'1312.7
2014-Apr-07 02:32N 51°29' E 000°49'1312.8
2014-Apr-07 01:33N 51°30' E 000°29'8 7.7
2014-Apr-07 00:34N 51°28' E 000°17'1 0.6
2014-Apr-06 23:34N 51°28' E 000°16'0 0.0
2014-Apr-06 22:34N 51°28' E 000°16'0 0.0
2014-Apr-06 21:33N 51°28' E 000°16'0 0.0
2014-Apr-06 20:33N 51°28' E 000°16'0 0.0
2014-Apr-06 19:34N 51°28' E 000°16'0 0.0
2014-Apr-06 18:34N 51°28' E 000°16'  

Dump ship's entire track history

sailing weather and tide predictions

Seacod — DDPW — position and weather